Time;durP1;ratioP1;P1;durP2;ratioP2;P2;SDS_P1;SDS_P2;PMS_P1;PMS_P2;Temp;Humidity;BMP_temperature;BMP_pressure;BME280_temperature;BME280_humidity;BME280_pressure;Samples;Min_cycle;Max_cycle;Signal;HPM_P1;HPM_P2
2022/07/31 00:02:10;;;;;;;2.30;2.10;;;18.10;1.00;;;;;;5093874;28;20935;-75
2022/07/31 00:04:37;;;;;;;2.63;1.70;;;18.10;1.00;;;;;;5093011;28;20436;-73
2022/07/31 00:07:05;;;;;;;2.30;2.10;;;18.00;1.00;;;;;;5106192;28;20973;-76
2022/07/31 00:09:32;;;;;;;3.70;2.30;;;17.90;1.00;;;;;;5094341;28;20440;-75
2022/07/31 00:11:59;;;;;;;1.90;1.80;;;17.90;1.00;;;;;;5092957;28;20432;-75
2022/07/31 00:14:26;;;;;;;2.50;2.30;;;17.90;1.00;;;;;;5093558;28;20444;-75
2022/07/31 00:16:52;;;;;;;3.80;2.20;;;18.00;1.00;;;;;;5093266;28;20464;-74
2022/07/31 00:19:19;;;;;;;2.90;2.23;;;17.90;1.00;;;;;;5093950;28;20523;-76
2022/07/31 00:21:46;;;;;;;2.77;2.10;;;17.90;1.00;;;;;;5093385;28;20784;-76
2022/07/31 00:24:15;;;;;;;2.43;2.23;;;17.90;1.00;;;;;;5093456;28;20452;-76
2022/07/31 00:26:41;;;;;;;4.00;2.10;;;17.80;1.00;;;;;;5093178;28;20817;-76
2022/07/31 00:29:09;;;;;;;2.07;1.70;;;17.70;22.10;;;;;;5092945;28;20441;-72
2022/07/31 00:31:36;;;;;;;2.87;2.67;;;17.80;1.80;;;;;;5092722;28;20448;-80
2022/07/31 00:34:03;;;;;;;2.00;1.90;;;17.70;20.40;;;;;;5092891;28;20479;-72
2022/07/31 00:36:30;;;;;;;2.10;1.90;;;17.70;58.40;;;;;;5096418;28;20473;-75
2022/07/31 00:38:57;;;;;;;2.40;2.20;;;17.70;69.90;;;;;;5090444;28;20935;-74
2022/07/31 00:41:25;;;;;;;2.10;2.00;;;17.80;2.50;;;;;;5092380;28;20440;-69
2022/07/31 00:43:52;;;;;;;2.17;2.00;;;17.70;36.60;;;;;;5091293;28;20461;-70
2022/07/31 00:46:19;;;;;;;2.80;2.30;;;17.70;99.00;;;;;;5092506;28;20437;-71
2022/07/31 00:48:46;;;;;;;2.67;2.30;;;17.70;62.30;;;;;;5091946;28;20437;-70
2022/07/31 00:51:12;;;;;;;2.40;2.20;;;17.70;54.90;;;;;;5092242;28;20436;-75
2022/07/31 00:53:39;;;;;;;2.20;2.00;;;17.70;99.90;;;;;;5090750;28;20605;-71
2022/07/31 00:56:06;;;;;;;2.80;2.60;;;17.70;75.90;;;;;;5091712;28;21062;-72
2022/07/31 00:58:35;;;;;;;2.57;2.37;;;17.70;99.90;;;;;;5092560;28;20464;-72
2022/07/31 01:01:02;;;;;;;3.30;2.37;;;17.80;59.40;;;;;;5092604;28;20785;-72
2022/07/31 01:03:28;;;;;;;2.50;2.30;;;17.70;35.90;;;;;;5091945;28;20446;-72
2022/07/31 01:05:55;;;;;;;2.80;2.10;;;17.80;74.10;;;;;;5101346;28;20448;-72
2022/07/31 01:08:22;;;;;;;2.77;2.50;;;17.90;1.00;;;;;;5093422;28;20445;-71
2022/07/31 01:10:56;;;;;;;2.33;2.13;;;17.70;19.60;;;;;;5092188;28;20793;-72
2022/07/31 01:13:31;;;;;;;2.50;2.10;;;17.70;46.90;;;;;;5092192;28;20433;-72
2022/07/31 01:16:01;;;;;;;2.70;2.43;;;17.60;99.90;;;;;;5092049;28;20464;-72
2022/07/31 01:18:31;;;;;;;2.20;2.00;;;17.60;99.90;;;;;;5092238;28;20931;-73
2022/07/31 01:21:03;;;;;;;2.57;2.37;;;17.50;99.90;;;;;;5091692;28;20447;-72
2022/07/31 01:23:53;;;;;;;2.60;2.03;;;17.50;99.90;;;;;;5092207;28;20908;-73
2022/07/31 01:26:34;;;;;;;2.47;2.10;;;17.50;99.90;;;;;;5091013;28;20457;-73
2022/07/31 01:29:09;;;;;;;2.30;2.10;;;17.60;99.90;;;;;;5097870;28;20441;-74
2022/07/31 01:31:43;;;;;;;2.70;2.50;;;17.40;99.90;;;;;;5096641;28;20447;-71
2022/07/31 01:34:19;;;;;;;2.40;2.00;;;17.30;1.00;;;;;;5102809;28;20536;-73
2022/07/31 01:36:54;;;;;;;3.47;2.20;;;17.30;1.00;;;;;;5110479;28;20492;-72
2022/07/31 01:39:21;;;;;;;2.27;2.17;;;17.20;1.00;;;;;;5099470;28;20520;-70
2022/07/31 01:41:49;;;;;;;2.70;2.00;;;17.10;76.90;;;;;;5084163;28;20451;-71
2022/07/31 01:44:20;;;;;;;2.43;2.20;;;17.00;99.90;;;;;;5090794;28;20459;-70
2022/07/31 01:46:48;;;;;;;2.10;1.90;;;17.00;1.00;;;;;;5091249;28;20445;-70
2022/07/31 01:49:17;;;;;;;3.37;2.27;;;17.10;99.90;;;;;;5090900;28;20441;-72
2022/07/31 01:51:46;;;;;;;1.90;1.80;;;17.00;99.90;;;;;;5090931;28;20439;-71
2022/07/31 01:54:14;;;;;;;2.27;1.90;;;;;;;;;;5090672;28;20789;-71
2022/07/31 01:56:42;;;;;;;2.30;2.10;;;;;;;;;;5090733;28;20916;-71
2022/07/31 01:59:10;;;;;;;3.00;2.80;;;;;;;;;;5091568;28;20492;-71
2022/07/31 02:01:39;;;;;;;3.77;2.40;;;;;;;;;;5090222;28;20452;-70
2022/07/31 02:04:07;;;;;;;2.70;2.30;;;;;;;;;;5090298;28;20598;-70
2022/07/31 02:06:34;;;;;;;3.30;2.80;;;;;;;;;;5097769;28;20533;-71
2022/07/31 02:09:02;;;;;;;3.10;2.80;;;;;;;;;;5090871;28;20456;-72
2022/07/31 02:11:30;;;;;;;4.30;2.67;;;;;;;;;;5091562;28;20443;-71
2022/07/31 02:13:57;;;;;;;2.70;2.50;;;;;;;;;;5089885;28;20452;-72
2022/07/31 02:16:25;;;;;;;2.80;2.57;;;;;;;;;;5090329;28;20981;-71
2022/07/31 02:18:54;;;;;;;2.40;2.10;;;;;;;;;;5090594;28;20440;-70
2022/07/31 02:21:21;;;;;;;3.00;2.70;;;;;;;;;;5090678;28;20796;-70
2022/07/31 02:23:48;;;;;;;2.60;2.40;;;;;;;;;;5089619;28;20451;-70
2022/07/31 02:26:17;;;;;;;3.03;2.30;;;;;;;;;;5091005;28;20792;-71
2022/07/31 02:28:45;;;;;;;2.87;2.30;;;;;;;;;;5089960;28;20454;-71
2022/07/31 02:31:13;;;;;;;2.70;2.50;;;;;;;;;;5090812;28;20459;-71
2022/07/31 02:33:43;;;;;;;4.37;2.23;;;;;;;;;;5089697;28;20477;-71
2022/07/31 02:36:12;;;;;;;4.33;2.97;;;;;;;;;;5090759;28;20494;-71
2022/07/31 02:38:40;;;;;;;2.77;2.50;;;;;;;;;;5089914;28;20444;-70
2022/07/31 02:41:08;;;;;;;3.00;2.73;;;;;;;;;;5090541;28;20452;-71
2022/07/31 02:43:35;;;;;;;2.37;2.17;;;;;;;;;;5090089;28;20480;-66
2022/07/31 02:46:04;;;;;;;2.30;2.10;;;;;;;;;;5091007;28;20534;-71
2022/07/31 02:48:32;;;;;;;3.57;2.60;;;;;;;;;;5090452;28;20523;-71
2022/07/31 02:51:00;;;;;;;2.93;2.50;;;;;;;;;;5090259;28;20494;-71
2022/07/31 02:53:29;;;;;;;3.17;2.87;;;;;;;;;;5089723;28;21009;-71
2022/07/31 02:55:56;;;;;;;3.30;2.57;;;;;;;;;;5089954;28;20985;-71
2022/07/31 02:58:24;;;;;;;3.47;2.27;;;;;;;;;;5090193;28;20455;-70
2022/07/31 03:00:58;;;;;;;3.20;2.57;;;;;;;;;;5090136;28;20443;-70
2022/07/31 03:03:25;;;;;;;3.80;2.87;;;;;;;;;;5091601;28;20451;-71
2022/07/31 03:05:53;;;;;;;2.73;2.53;;;;;;;;;;5094115;28;20513;-71
2022/07/31 03:08:20;;;;;;;2.80;2.60;;;;;;;;;;5094084;28;20439;-71
2022/07/31 03:10:48;;;;;;;4.07;2.47;;;;;;;;;;5094023;28;20443;-71
2022/07/31 03:13:16;;;;;;;3.30;3.00;;;;;;;;;;5093995;28;20783;-71
2022/07/31 03:15:44;;;;;;;4.60;2.83;;;;;;;;;;5093909;28;20530;-71
2022/07/31 03:18:13;;;;;;;3.23;2.87;;;;;;;;;;5093608;28;20436;-71
2022/07/31 03:20:41;;;;;;;2.87;2.67;;;;;;;;;;5093163;28;20520;-70
2022/07/31 03:23:08;;;;;;;6.03;3.40;;;;;;;;;;5093922;28;20444;-69
2022/07/31 03:25:36;;;;;;;3.50;2.40;;;;;;;;;;5093303;28;20961;-67
2022/07/31 03:28:04;;;;;;;3.00;2.77;;;;;;;;;;5093389;28;20932;-71
2022/07/31 03:30:31;;;;;;;4.07;3.00;;;;;;;;;;5093634;28;20428;-70
2022/07/31 03:33:02;;;;;;;3.20;2.90;;;;;;;;;;5093253;28;20448;-70
2022/07/31 03:35:29;;;;;;;2.80;2.60;;;;;;;;;;5097484;28;20511;-72
2022/07/31 03:37:57;;;;;;;2.73;2.53;;;;;;;;;;5093197;28;20525;-71
2022/07/31 03:40:24;;;;;;;3.03;2.73;;;;;;;;;;5093235;28;20940;-71
2022/07/31 03:42:51;;;;;;;2.60;2.40;;;;;;;;;;5092417;28;20530;-71
2022/07/31 03:45:21;;;;;;;3.13;2.77;;;;;;;;;;5093543;28;20443;-71
2022/07/31 03:47:48;;;;;;;3.13;2.40;;;;;;;;;;5094045;28;20442;-71
2022/07/31 03:50:16;;;;;;;2.90;2.40;;;;;;;;;;5094058;28;20932;-71
2022/07/31 03:52:44;;;;;;;2.57;2.37;;;;;;;;;;5093461;28;20526;-70
2022/07/31 03:55:11;;;;;;;3.00;2.53;;;;;;;;;;5094031;28;20452;-70
2022/07/31 03:57:39;;;;;;;3.27;2.47;;;;;;;;;;5093673;28;20483;-70
2022/07/31 04:00:06;;;;;;;3.27;2.90;;;;;;;;;;5094211;28;20486;-70
2022/07/31 04:02:35;;;;;;;2.97;2.67;;;;;;;;;;5093936;28;20444;-70
2022/07/31 04:05:02;;;;;;;3.43;2.47;;;;;;;;;;5093823;28;20557;-71
2022/07/31 04:07:29;;;;;;;3.00;2.70;;;;;;;;;;5093848;28;20445;-71
2022/07/31 04:09:56;;;;;;;3.60;2.90;;;;;;;;;;5093399;28;20443;-70
2022/07/31 04:12:24;;;;;;;4.13;2.60;;;;;;;;;;5093258;28;20448;-70
2022/07/31 04:14:51;;;;;;;3.50;2.93;;;;;;;;;;5093161;28;20453;-70
2022/07/31 04:17:18;;;;;;;2.97;2.70;;;;;;;;;;5093562;28;20483;-72
2022/07/31 04:19:48;;;;;;;2.27;1.93;;;;;;;;;;5093293;28;20444;-72
2022/07/31 04:22:15;;;;;;;2.70;2.33;;;;;;;;;;5093787;28;20458;-71
2022/07/31 04:24:42;;;;;;;3.80;3.50;;;;;;;;;;5093232;28;20453;-71
2022/07/31 04:27:09;;;;;;;3.53;3.23;;;;;;;;;;5093490;28;20452;-71
2022/07/31 04:29:36;;;;;;;2.70;2.50;;;;;;;;;;5092951;28;20441;-71
2022/07/31 04:32:04;;;;;;;2.87;2.63;;;;;;;;;;5095482;28;20457;-71
2022/07/31 04:34:31;;;;;;;3.63;2.90;;;;;;;;;;5099759;28;20495;-71
2022/07/31 04:36:59;;;;;;;2.93;2.60;;;;;;;;;;5092300;28;20476;-71
2022/07/31 04:39:26;;;;;;;3.60;3.30;;;;;;;;;;5093244;28;20438;-71
2022/07/31 04:41:54;;;;;;;3.80;3.37;;;;;;;;;;5092688;28;20443;-70
2022/07/31 04:44:22;;;;;;;2.77;2.57;;;;;;;;;;5092863;28;20452;-71
2022/07/31 04:46:49;;;;;;;2.67;2.47;;;;;;;;;;5092469;28;20466;-71
2022/07/31 04:49:16;;;;;;;3.47;3.17;;;;;;;;;;5092525;28;20437;-70
2022/07/31 04:51:43;;;;;;;3.37;2.90;;;;;;;;;;5091359;28;20444;-71
2022/07/31 04:54:12;;;;;;;4.00;2.70;;;;;;;;;;5091445;28;20442;-77
2022/07/31 04:56:42;;;;;;;2.37;2.17;;;;;;;;;;5091815;28;20468;-71
2022/07/31 04:59:10;;;;;;;2.83;2.30;;;;;;;;;;5092784;28;20513;-74
2022/07/31 05:01:37;;;;;;;3.30;3.10;;;;;;;;;;5092195;28;20513;-73
2022/07/31 05:04:04;;;;;;;2.90;2.70;;;;;;;;;;5092737;28;20932;-74
2022/07/31 05:06:35;;;;;;;2.60;2.40;;;;;;;;;;5099809;28;20449;-74
2022/07/31 05:09:04;;;;;;;4.10;3.63;;;;;;;;;;5092751;28;20437;-74
2022/07/31 05:11:32;;;;;;;3.20;3.00;;;;;;;;;;5092265;28;20547;-68
2022/07/31 05:14:00;;;;;;;2.90;2.70;;;;;;;;;;5091305;28;20451;-73
2022/07/31 05:16:28;;;;;;;3.03;2.73;;;;;;;;;;5092175;28;20513;-74
2022/07/31 05:18:55;;;;;;;2.77;2.57;;;;;;;;;;5091651;28;20445;-75
2022/07/31 05:21:23;;;;;;;3.77;2.50;;;;;;;;;;5092012;28;20447;-73
2022/07/31 05:23:50;;;;;;;3.27;3.00;;;;;;;;;;5090241;28;20527;-70
2022/07/31 05:26:18;;;;;;;3.50;3.20;;;;;;;;;;5091964;28;20459;-71
2022/07/31 05:28:48;;;;;;;4.03;3.73;;;;;;;;;;5091107;28;20437;-68
2022/07/31 05:31:16;;;;;;;2.33;2.13;;;;;;;;;;5092343;28;20445;-68
2022/07/31 05:33:43;;;;;;;3.10;2.67;;;;;;;;;;5091055;28;20477;-68
2022/07/31 05:36:11;;;;;;;2.50;2.30;;;;;;;;;;5091717;28;20465;-68
2022/07/31 05:38:38;;;;;;;2.53;2.10;;;;;;;;;;5092043;28;20452;-72
2022/07/31 05:41:05;;;;;;;2.37;2.17;;;;;;;;;;5095314;28;20504;-69
2022/07/31 05:43:33;;;;;;;2.77;2.53;;;;;;;;;;5103796;28;20440;-72
2022/07/31 05:46:02;;;;;;;3.10;2.47;;;;;;;;;;5099091;28;20429;-70
2022/07/31 05:48:29;;;;;;;4.10;2.60;;;;;;;;;;5092873;28;20441;-71
2022/07/31 05:50:56;;;;;;;2.70;2.50;;;;;;;;;;5092006;28;20437;-71
2022/07/31 05:53:23;;;;;;;2.63;2.43;;;;;;;;;;5091898;28;20448;-73
2022/07/31 05:55:51;;;;;;;5.27;2.80;;;;;;;;;;5091538;28;20478;-73
2022/07/31 05:58:19;;;;;;;6.03;2.70;;;;;;;;;;5091388;28;20541;-71
2022/07/31 06:00:47;;;;;;;2.43;2.20;;;;;;;;;;5090268;28;20447;-71
2022/07/31 06:03:16;;;;;;;2.93;2.63;;;;;;;;;;5090841;28;20452;-70
2022/07/31 06:05:43;;;;;;;2.27;2.17;;;;;;;;;;5098719;28;20830;-72
2022/07/31 06:08:11;;;;;;;2.50;2.30;;;;;;;;;;5096312;28;20928;-72
2022/07/31 06:10:38;;;;;;;2.40;2.20;;;;;;;;;;5090515;28;20908;-70
2022/07/31 06:13:06;;;;;;;2.67;2.47;;;;;;;;;;5091023;28;20530;-70
2022/07/31 06:15:33;;;;;;;2.53;2.30;;;;;;;;;;5091325;28;20441;-71
2022/07/31 06:18:01;;;;;;;2.97;2.73;;;;;;;;;;5090517;28;20882;-67
2022/07/31 06:20:29;;;;;;;2.90;2.70;;;;;;;;;;5091016;28;20465;-68
2022/07/31 06:22:56;;;;;;;2.70;2.37;;;;;;;;;;5089983;28;20449;-76
2022/07/31 06:25:24;;;;;;;2.90;2.43;;;;;;;;;;5091494;28;20770;-70
2022/07/31 06:27:51;;;;;;;2.67;2.47;;;;;;;;;;5090830;28;20795;-70
2022/07/31 06:30:18;;;;;;;2.37;2.17;;;;;;;;;;5090034;28;20688;-70
2022/07/31 06:32:45;;;;;;;3.10;2.50;;;;;;;;;;5089950;28;20824;-71
2022/07/31 06:35:12;;;;;;;2.20;2.00;;;;;;;;;;5091759;28;20474;-71
2022/07/31 06:37:41;;;;;;;2.50;2.30;;;;;;;;;;5092952;28;20989;-71
2022/07/31 06:40:08;;;;;;;2.83;2.40;;;;;;;;;;5095331;28;20946;-71
2022/07/31 06:42:36;;;;;;;2.43;2.23;;;;;;;;;;5094813;28;20440;-68
2022/07/31 06:45:03;;;;;;;2.70;2.50;;;;;;;;;;5095733;28;20440;-72
2022/07/31 06:47:30;;;;;;;2.90;2.43;;;;;;;;;;5095640;28;20547;-71
2022/07/31 06:49:57;;;;;;;2.50;2.30;;;;;;;;;;5094981;28;20449;-71
2022/07/31 06:52:24;;;;;;;2.33;2.13;;;;;;;;;;5094984;28;20440;-71
2022/07/31 06:54:53;;;;;;;3.47;2.33;;;;;;;;;;5094639;28;20441;-71
2022/07/31 06:57:20;;;;;;;2.73;2.40;;;;;;;;;;5095376;28;20955;-72
2022/07/31 06:59:47;;;;;;;2.73;2.50;;;;;;;;;;5094260;28;20942;-70
2022/07/31 07:02:14;;;;;;;2.10;1.90;;;;;;;;;;5094753;28;20445;-71
2022/07/31 07:04:42;;;;;;;2.90;2.47;;;;;;;;;;5094208;28;20444;-71
2022/07/31 07:07:09;;;;;;;2.83;2.53;;;;;;;;;;5094730;28;20540;-71
2022/07/31 07:09:36;;;;;;;2.03;1.83;;;;;;;;;;5094478;28;20471;-70
2022/07/31 07:12:04;;;;;;;2.10;2.00;;;;;;;;;;5094739;28;20441;-71
2022/07/31 07:14:32;;;;;;;2.50;2.30;;;;;;;;;;5095010;28;20451;-71
2022/07/31 07:16:59;;;;;;;3.50;2.13;;;;;;;;;;5094441;28;20837;-72
2022/07/31 07:19:26;;;;;;;3.53;2.63;;;;;;;;;;5094974;28;20524;-71
2022/07/31 07:21:53;;;;;;;2.40;2.20;;;;;;;;;;5094076;28;20873;-71
2022/07/31 07:24:20;;;;;;;2.70;1.90;;;;;;;;;;5094820;28;20445;-71
2022/07/31 07:26:47;;;;;;;2.43;2.10;;;;;;;;;;5094248;28;20445;-71
2022/07/31 07:29:16;;;;;;;3.70;2.10;;;;;;;;;;5094178;28;20437;-71
2022/07/31 07:31:43;;;;;;;2.57;2.23;;;;;;;;;;5093782;28;20447;-70
2022/07/31 07:34:10;;;;;;;2.00;1.90;;;;;;;;;;5094241;28;20558;-71
2022/07/31 07:36:37;;;;;;;2.53;2.33;;;;;;;;;;5093753;28;20757;-71
2022/07/31 07:39:04;;;;;;;2.70;2.20;;;;;;;;;;5094349;28;20447;-71
2022/07/31 07:41:31;;;;;;;3.30;2.20;;;;;;;;;;5094341;28;20440;-72
2022/07/31 07:43:59;;;;;;;2.53;2.33;;;;;;;;;;5093279;28;20445;-72
2022/07/31 07:46:27;;;;;;;5.83;2.10;;;;;;;;;;5094617;28;20463;-71
2022/07/31 07:48:54;;;;;;;2.43;1.70;;;;;;;;;;5092848;28;20475;-71
2022/07/31 07:51:21;;;;;;;1.70;1.60;;;;;;;;;;5094113;28;20908;-71
2022/07/31 07:53:49;;;;;;;3.57;2.43;;;;;;;;;;5093138;28;20445;-71
2022/07/31 07:56:17;;;;;;;2.23;2.03;;;;;;;;;;5094426;28;20435;-72
2022/07/31 07:58:44;;;;;;;4.80;2.73;;;;;;;;;;5093032;28;20486;-71
2022/07/31 08:01:11;;;;;;;2.90;2.60;;;;;;;;;;5094158;28;20451;-71
2022/07/31 08:03:40;;;;;;;2.60;2.40;;;;;;;;;;5093298;28;20770;-71
2022/07/31 08:06:07;;;;;;;3.07;2.20;;;;;;;;;;5093916;28;20791;-71
2022/07/31 08:08:34;;;;;;;2.87;2.67;;;;;;;;;;5093700;28;20451;-71
2022/07/31 08:11:03;;;;;;;3.33;3.03;;;;;;;;;;5093800;28;20445;-72
2022/07/31 08:13:30;;;;;;;2.63;2.43;;;;;;;;;;5093690;28;20847;-71
2022/07/31 08:15:57;;;;;;;2.80;2.60;;;;;;;;;;5093368;28;20447;-71
2022/07/31 08:18:25;;;;;;;2.87;2.63;;;;;;;;;;5093822;28;20770;-71
2022/07/31 08:20:53;;;;;;;3.00;2.57;;;;;;;;;;5093120;28;20440;-71
2022/07/31 08:23:20;;;;;;;2.77;2.53;;;;;;;;;;5093538;28;20441;-71
2022/07/31 08:25:47;;;;;;;2.40;2.20;;;;;;;;;;5093237;28;20445;-71
2022/07/31 08:28:15;;;;;;;2.80;2.53;;;;;;;;;;5093384;28;20535;-71
2022/07/31 08:30:42;;;;;;;2.83;2.63;;;;;;;;;;5092762;28;20441;-71
2022/07/31 08:33:09;;;;;;;2.73;2.47;;;;;;;;;;5093255;28;20468;-72
2022/07/31 08:35:36;;;;;;;2.53;2.40;;;;;;;;;;5092803;28;20468;-71
2022/07/31 08:38:04;;;;;;;3.07;2.60;;;;;;;;;;5102294;28;20481;-72
2022/07/31 08:40:32;;;;;;;2.80;2.30;;;;;;;;;;5104593;28;20447;-72
2022/07/31 08:43:00;;;;;;;2.60;2.40;;;;;;;;;;5104639;28;20476;-72
2022/07/31 08:45:27;;;;;;;3.40;2.30;;;;;;;;;;5107129;28;20525;-73
2022/07/31 08:47:56;;;;;;;2.70;2.50;;;;;;;;;;5108418;28;20524;-72
2022/07/31 08:50:23;;;;;;;2.47;2.23;;;;;;;;;;5109511;28;20433;-71
2022/07/31 08:52:53;;;;;;;2.70;2.50;;;;;;;;;;5108321;28;20453;-72
2022/07/31 08:55:22;;;;;;;2.53;2.33;;;;;;;;;;5108026;28;20910;-72
2022/07/31 08:57:50;;;;;;;5.33;3.97;;;;;;;;;;5107498;28;20475;-71
2022/07/31 09:00:18;;;;;;;3.20;2.90;;;;;;;;;;5107549;28;20511;-72
2022/07/31 09:02:46;;;;;;;3.07;2.87;;;;;;;;;;5107265;28;20449;-71
2022/07/31 09:05:13;;;;;;;3.00;2.63;;;;;;;;;;5108754;28;20448;-72
2022/07/31 09:07:40;;;;;;;2.33;2.20;;;17.10;1.00;;;;;;5109160;28;20475;-72
2022/07/31 09:10:08;;;;;;;2.17;2.07;;;24.80;99.90;;;;;;5111855;28;20437;-70
2022/07/31 09:12:37;;;;;;;2.70;2.50;;;24.80;99.90;;;;;;5111184;28;20433;-69
2022/07/31 09:15:04;;;;;;;2.80;2.33;;;25.30;99.90;;;;;;5111414;28;20469;-72
2022/07/31 09:17:33;;;;;;;2.60;2.03;;;25.10;99.90;;;;;;5111983;28;20501;-72
2022/07/31 09:20:00;;;;;;;3.20;2.37;;;25.10;99.90;;;;;;5112959;28;20468;-72
2022/07/31 09:22:29;;;;;;;2.50;2.00;;;25.10;99.90;;;;;;5112890;28;20460;-71
2022/07/31 09:25:10;;;;;;;2.10;1.90;;;25.20;97.60;;;;;;5111521;28;20442;-72
2022/07/31 09:27:39;;;;;;;3.07;2.50;;;25.40;95.50;;;;;;5111064;28;20494;-70
2022/07/31 09:30:08;;;;;;;2.60;2.40;;;25.50;90.90;;;;;;5108523;28;20497;-70
2022/07/31 09:32:35;;;;;;;2.57;2.37;;;25.60;81.40;;;;;;5107971;28;20516;-68
2022/07/31 09:35:10;;;;;;;1.80;1.70;;;25.60;74.60;;;;;;5110781;28;20469;-73
2022/07/31 09:37:38;;;;;;;2.10;2.00;;;25.50;70.70;;;;;;5110653;28;20507;-72
2022/07/31 09:40:06;;;;;;;3.00;2.17;;;25.50;65.40;;;;;;5109664;28;20433;-72
2022/07/31 09:42:41;;;;;;;2.10;1.90;;;25.50;59.40;;;;;;5107307;28;20433;-72
2022/07/31 09:45:19;;;;;;;2.80;1.83;;;25.60;52.80;;;;;;5107861;28;20429;-72
2022/07/31 09:47:46;;;;;;;2.57;2.37;;;25.90;48.00;;;;;;5103625;28;20436;-72
2022/07/31 09:50:13;;;;;;;2.03;1.90;;;;;;;;;;5104492;28;20436;-72
2022/07/31 09:52:41;;;;;;;2.50;1.93;;;;;;;;;;5105458;28;20512;-72
2022/07/31 09:55:09;;;;;;;2.00;1.90;;;;;;;;;;5104064;28;20432;-72
2022/07/31 09:57:38;;;;;;;2.13;1.90;;;;;;;;;;5096489;28;20563;-71
2022/07/31 10:00:08;;;;;;;2.53;2.33;;;;;;;;;;5094771;28;20521;-71
2022/07/31 10:02:36;;;;;;;1.80;1.70;;;;;;;;;;5092857;28;20911;-68
2022/07/31 10:05:04;;;;;;;2.60;2.23;;;;;;;;;;5093481;28;20527;-71
2022/07/31 10:07:34;;;;;;;1.50;1.40;;;;;;;;;;5093283;28;20443;-71
2022/07/31 10:10:02;;;;;;;1.97;1.77;;;;;;;;;;5092454;28;20433;-71
2022/07/31 10:12:30;;;;;;;2.33;2.13;;;;;;;;;;5092112;28;21035;-71
2022/07/31 10:14:59;;;;;;;2.00;1.73;;;;;;;;;;5091559;28;20534;-71
2022/07/31 10:17:29;;;;;;;2.30;2.10;;;;;;;;;;5092676;28;20941;-72
2022/07/31 10:19:58;;;;;;;2.40;2.20;;;;;;;;;;5101209;28;20923;-71
2022/07/31 10:22:27;;;;;;;2.63;2.43;;;;;;;;;;5105530;28;20445;-72
2022/07/31 10:24:59;;;;;;;1.60;1.50;;;;;;;;;;5105357;28;20444;-71
2022/07/31 10:27:26;;;;;;;1.90;1.70;;;;;;;;;;5104267;28;20448;-71
2022/07/31 10:29:54;;;;;;;1.80;1.70;;;;;;;;;;5103061;28;20460;-71
2022/07/31 10:32:21;;;;;;;2.17;1.40;;;;;;;;;;5100504;28;20452;-72
2022/07/31 10:34:50;;;;;;;2.10;1.90;;;;;;;;;;5099106;28;20520;-72
2022/07/31 10:37:19;;;;;;;1.93;1.77;;;;;;;;;;5096011;28;20435;-72
2022/07/31 10:39:50;;;;;;;2.23;2.00;;;;;;;;;;5091972;28;20483;-72
2022/07/31 10:42:26;;;;;;;2.03;1.80;;;;;;;;;;5091585;28;20471;-72
2022/07/31 10:44:56;;;;;;;1.43;1.33;;;;;;;;;;5091106;28;20443;-72
2022/07/31 10:47:24;;;;;;;1.80;1.70;;;;;;;;;;5091259;28;20446;-71
2022/07/31 10:49:53;;;;;;;3.47;1.77;;;;;;;;;;5091069;28;20502;-72
2022/07/31 10:52:27;;;;;;;1.80;1.70;;;;;;;;;;5091133;28;20450;-72
2022/07/31 10:54:56;;;;;;;1.70;1.57;;;;;;;;;;5090890;28;20903;-71
2022/07/31 10:57:24;;;;;;;2.47;2.27;;;;;;;;;;5091557;28;20481;-72
2022/07/31 10:59:51;;;;;;;1.80;1.70;;;;;;;;;;5090819;28;20471;-71
2022/07/31 11:02:28;;;;;;;2.07;1.83;;;;;;;;;;5090926;28;20448;-71
2022/07/31 11:05:06;;;;;;;2.00;1.80;;;;;;;;;;5090685;28;21173;-71
2022/07/31 11:07:33;;;;;;;4.30;1.90;;;;;;;;;;5090945;28;20523;-71
2022/07/31 11:10:08;;;;;;;1.53;1.43;;;;;;;;;;5091446;28;20478;-71
2022/07/31 11:12:36;;;;;;;2.73;2.40;;;;;;;;;;5090240;28;20432;-70
2022/07/31 11:15:03;;;;;;;2.93;2.73;;;;;;;;;;5090887;28;20436;-71
2022/07/31 11:17:35;;;;;;;2.70;2.50;;;;;;;;;;5091596;28;20436;-71
2022/07/31 11:20:05;;;;;;;3.67;2.50;;;;;;;;;;5077791;28;20444;-71
2022/07/31 11:22:33;;;;;;;2.73;2.53;;;;;;;;;;5091772;28;20451;-71
2022/07/31 11:25:01;;;;;;;2.33;2.13;;;;;;;;;;5094925;28;20443;-71
2022/07/31 11:27:31;;;;;;;1.90;1.73;;;;;;;;;;5094794;28;20440;-71
2022/07/31 11:30:04;;;;;;;2.10;1.90;;;;;;;;;;5094071;28;20444;-72
2022/07/31 11:32:31;;;;;;;2.50;2.13;;;;;;;;;;5094284;28;20455;-71
2022/07/31 11:34:58;;;;;;;2.33;2.10;;;;;;;;;;5093615;28;20474;-71
2022/07/31 11:37:29;;;;;;;2.40;2.20;;;;;;;;;;5094417;28;20471;-71
2022/07/31 11:39:57;;;;;;;1.70;1.60;;;;;;;;;;5093880;28;20472;-71
2022/07/31 11:42:26;;;;;;;2.47;2.10;;;;;;;;;;5094041;28;20448;-71
2022/07/31 11:44:53;;;;;;;4.23;1.77;;;;;;;;;;5094046;28;20440;-71
2022/07/31 11:47:20;;;;;;;2.00;1.90;;;;;;;;;;5094426;28;20451;-71
2022/07/31 11:49:47;;;;;;;1.83;1.73;;;;;;;;;;5093828;28;20448;-72
2022/07/31 11:52:14;;;;;;;2.20;2.00;;;;;;;;;;5093782;28;20289;-72
2022/07/31 11:54:43;;;;;;;1.87;1.77;;;;;;;;;;5093686;28;20857;-72
2022/07/31 11:57:11;;;;;;;2.37;2.00;;;;;;;;;;5094146;28;20288;-72
2022/07/31 11:59:39;;;;;;;1.80;1.70;;;;;;;;;;5093364;28;20210;-72
2022/07/31 12:02:07;;;;;;;1.60;1.50;;;;;;;;;;5093291;28;20277;-71
2022/07/31 12:04:36;;;;;;;1.53;1.43;;;;;;;;;;5094412;28;20523;-71
2022/07/31 12:07:03;;;;;;;2.47;1.90;;;;;;;;;;5104351;28;20443;-72
2022/07/31 12:09:31;;;;;;;1.70;1.60;;;;;;;;;;5093922;28;20547;-71
2022/07/31 12:12:00;;;;;;;1.90;1.63;;;;;;;;;;5092897;28;20528;-71
2022/07/31 12:14:30;;;;;;;2.43;1.80;;;;;;;;;;5093806;28;20524;-72
2022/07/31 12:16:57;;;;;;;1.70;1.60;;;;;;;;;;5093029;28;20436;-73
2022/07/31 12:19:28;;;;;;;1.70;1.60;;;;;;;;;;5093257;28;20222;-72
2022/07/31 12:21:55;;;;;;;1.73;1.63;;;;;;;;;;5092475;28;20689;-71
2022/07/31 12:24:23;;;;;;;2.13;1.83;;;;;;;;;;5093398;28;20664;-71
2022/07/31 12:26:51;;;;;;;1.40;1.30;;;;;;;;;;5093064;28;20244;-71
2022/07/31 12:29:20;;;;;;;1.80;1.70;;;;;;;;;;5093328;28;20633;-71
2022/07/31 12:31:48;;;;;;;1.87;1.73;;;;;;;;;;5092344;28;20280;-72
2022/07/31 12:34:25;;;;;;;1.67;1.50;;;;;;;;;;5093026;28;20230;-71
2022/07/31 12:36:57;;;;;;;2.42;1.88;;;;;;;;;;5093031;28;20186;-72
2022/07/31 12:39:25;;;;;;;1.60;1.50;;;;;;;;;;5093651;28;20252;-72
2022/07/31 12:41:52;;;;;;;1.83;1.70;;;;;;;;;;5092636;28;20194;-72
2022/07/31 12:44:20;;;;;;;1.83;1.73;;;;;;;;;;5093047;28;20616;-72
2022/07/31 12:46:48;;;;;;;1.80;1.70;;;;;;;;;;5092632;28;20216;-71
2022/07/31 12:49:15;;;;;;;1.77;1.67;;;;;;;;;;5092935;28;20663;-71
2022/07/31 12:51:42;;;;;;;1.60;1.50;;;;;;;;;;5092122;28;20198;-71
2022/07/31 12:54:09;;;;;;;1.50;1.40;;;;;;;;;;5092900;28;20551;-71
2022/07/31 12:56:37;;;;;;;1.70;1.60;;;;;;;;;;5092617;28;20194;-70
2022/07/31 12:59:04;;;;;;;1.50;1.40;;;;;;;;;;5093057;28;20225;-72
2022/07/31 13:01:33;;;;;;;1.40;1.30;;;;;;;;;;5092432;28;20213;-71
2022/07/31 13:04:00;;;;;;;2.80;1.80;;;;;;;;;;5092291;28;20202;-71
2022/07/31 13:06:29;;;;;;;1.70;1.60;;;;;;;;;;5105162;28;20190;-71
2022/07/31 13:08:56;;;;;;;1.87;1.67;;;;;;;;;;5092067;28;20202;-71
2022/07/31 13:11:24;;;;;;;4.23;1.63;;;;;;;;;;5092040;28;20672;-70
2022/07/31 13:13:51;;;;;;;1.70;1.60;;;;;;;;;;5092241;28;20440;-71
2022/07/31 13:16:18;;;;;;;2.17;1.50;;;;;;;;;;5092490;28;20206;-71
2022/07/31 13:18:47;;;;;;;3.47;1.60;;;;;;;;;;5092142;28;20220;-71
2022/07/31 13:21:14;;;;;;;2.60;1.63;;;;;;;;;;5092084;28;20439;-71
2022/07/31 13:23:41;;;;;;;1.83;1.70;;;;;;;;;;5092043;28;20208;-71
2022/07/31 13:26:08;;;;;;;1.40;1.30;;;;;;;;;;5092669;28;20190;-71
2022/07/31 13:28:35;;;;;;;1.97;1.83;;;;;;;;;;5092057;28;20564;-69
2022/07/31 13:31:02;;;;;;;1.70;1.60;;;;;;;;;;5092516;28;20436;-71
2022/07/31 13:33:29;;;;;;;1.60;1.50;;;;;;;;;;5092060;28;20456;-71
2022/07/31 13:35:58;;;;;;;3.00;1.93;;;;;;;;;;5091527;28;20756;-71
2022/07/31 13:38:25;;;;;;;1.40;1.30;;;;;;;;;;5092323;28;20527;-71
2022/07/31 13:43:37;;;;;;;2.20;1.90;;;;;;;;;;5091890;28;20515;-71
2022/07/31 13:46:05;;;;;;;2.67;2.47;;;;;;;;;;5091569;28;20446;-71
2022/07/31 13:48:32;;;;;;;1.80;1.67;;;;;;;;;;5092457;28;20441;-72
2022/07/31 13:51:00;;;;;;;2.10;2.00;;;;;;;;;;5092114;28;20440;-71
2022/07/31 13:53:28;;;;;;;1.93;1.70;;;;;;;;;;5092639;28;20987;-71
2022/07/31 13:55:55;;;;;;;1.60;1.50;;;;;;;;;;5092544;28;20471;-72
2022/07/31 13:58:22;;;;;;;1.20;1.10;;;;;;;;;;5093158;28;20198;-71
2022/07/31 14:00:49;;;;;;;1.60;1.50;;;;;;;;;;5094949;28;20566;-72
2022/07/31 14:03:17;;;;;;;1.60;1.50;;;;;;;;;;5094721;28;20198;-72
2022/07/31 14:05:44;;;;;;;1.50;1.40;;;;;;;;;;5096325;28;20524;-72
2022/07/31 14:08:12;;;;;;;2.63;1.57;;;;;;;;;;5091897;28;21005;-71
2022/07/31 14:10:39;;;;;;;1.23;1.13;;;;;;;;;;5091051;28;20475;-71
2022/07/31 14:13:06;;;;;;;1.33;1.23;;;;;;;;;;5091298;28;20467;-70
2022/07/31 14:15:34;;;;;;;1.90;1.80;;;;;;;;;;5091882;28;20447;-71
2022/07/31 14:18:01;;;;;;;1.57;1.47;;;;;;;;;;5091955;28;20199;-71
2022/07/31 14:20:31;;;;;;;3.60;1.20;;;;;;;;;;5091726;28;20472;-71
2022/07/31 14:22:58;;;;;;;1.30;1.10;;;;;;;;;;5090406;28;20281;-71
2022/07/31 14:25:27;;;;;;;1.30;1.20;;;;;;;;;;5091624;28;20198;-71
2022/07/31 14:27:54;;;;;;;1.40;1.30;;;;;;;;;;5090978;28;20229;-70
2022/07/31 14:30:21;;;;;;;2.25;1.77;;;;;;;;;;5091300;28;20198;-70